Aleppo, Pennsylvania
Current Conditions -  °F | °C
As of 1:15 AM on Wednesday 22 Oct 2014 (Local Time) from KAFJ Reporting Station
Overcast Overcast  
Wind Chill:   Ceiling: 800
Heat Index:   Visibility: 6mi
Dew Point:   Wind: 3mph
Humidity: 93%   Direction: 270°W
Pressure: 30.04"   Gusts: NA
Location:  39.82°N, 80.45°W
Report Text: KAFJ 220515Z AUTO 27003KT 6SM BKN008 OVC017 08/07 A3004 RMK AO1
Loading
Personal Weather Stations






























Interactive Weather Map
Tropical Storm Tracking
New forecast layout! Learn more

10-Day Weather Forecast

Advertisements
Track Severe Weather on mobile